Time;durP1;ratioP1;P1;durP2;ratioP2;P2;SDS_P1;SDS_P2;PMS_P1;PMS_P2;Temp;Humidity;BMP_temperature;BMP_pressure;BME280_temperature;BME280_humidity;BME280_pressure;Samples;Min_cycle;Max_cycle;Signal;HPM_P1;HPM_P2
2022/04/03 00:01:44;;;;;;;13.23;7.90;;;4.80;57.90;;;;;;2535983;53;20964;-66
2022/04/03 00:04:10;;;;;;;11.68;7.10;;;4.80;57.80;;;;;;2339683;54;20924;-67
2022/04/03 00:06:39;;;;;;;11.30;7.90;;;4.80;57.80;;;;;;2431044;53;20936;-68
2022/04/03 00:09:07;;;;;;;12.18;7.75;;;4.70;57.80;;;;;;2400929;53;21007;-68
2022/04/03 00:11:33;;;;;;;11.57;7.47;;;4.80;57.80;;;;;;2345487;53;21755;-67
2022/04/03 00:13:59;;;;;;;12.10;7.60;;;4.70;57.70;;;;;;2337525;53;21799;-66
2022/04/03 00:16:26;;;;;;;12.07;7.60;;;4.80;57.80;;;;;;2338704;53;20925;-66
2022/04/03 00:18:52;;;;;;;12.70;8.30;;;4.80;57.80;;;;;;2339435;53;20944;-66
2022/04/03 00:21:18;;;;;;;10.73;7.47;;;4.70;57.70;;;;;;2326863;53;20984;-66
2022/04/03 00:23:46;;;;;;;13.15;8.60;;;4.70;57.80;;;;;;2442612;53;22040;-68
2022/04/03 00:26:12;;;;;;;12.95;8.00;;;4.60;57.70;;;;;;2340059;53;20928;-68
2022/04/03 00:28:39;;;;;;;11.27;7.45;;;4.70;57.80;;;;;;2339934;54;21016;-66
2022/04/03 00:31:05;;;;;;;12.35;8.18;;;4.70;57.90;;;;;;2339646;54;20847;-68
2022/04/03 00:33:31;;;;;;;12.73;7.68;;;4.70;57.80;;;;;;2339902;54;21472;-66
2022/04/03 00:35:58;;;;;;;12.60;7.82;;;4.70;57.90;;;;;;2339843;54;21397;-67
2022/04/03 00:38:24;;;;;;;13.23;8.60;;;4.70;57.80;;;;;;2418540;53;21401;-67
2022/04/03 00:40:50;;;;;;;14.38;8.50;;;4.70;57.80;;;;;;2339323;54;21621;-66
2022/04/03 00:43:17;;;;;;;14.32;8.30;;;4.70;57.90;;;;;;2430837;53;20900;-66
2022/04/03 00:45:46;;;;;;;12.18;7.70;;;4.70;57.90;;;;;;2585033;53;20951;-67
2022/04/03 00:48:13;;;;;;;11.73;7.32;;;4.60;57.90;;;;;;2319989;55;21056;-66
2022/04/03 00:50:41;;;;;;;11.55;7.80;;;4.70;58.00;;;;;;2340784;53;21784;-67
2022/04/03 00:53:07;;;;;;;14.30;8.85;;;4.70;58.10;;;;;;2338955;53;21008;-66
2022/04/03 00:55:33;;;;;;;13.00;7.82;;;4.70;58.10;;;;;;2339665;54;20936;-67
2022/04/03 00:57:59;;;;;;;12.70;7.32;;;4.70;58.10;;;;;;2340177;54;21457;-66
2022/04/03 01:00:26;;;;;;;12.07;7.20;;;4.70;58.10;;;;;;2339690;54;20944;-67
2022/04/03 01:02:52;;;;;;;11.68;7.75;;;4.70;58.10;;;;;;2339240;54;20925;-65
2022/04/03 01:05:18;;;;;;;12.13;7.93;;;4.70;58.10;;;;;;2339226;54;20944;-68
2022/04/03 01:07:45;;;;;;;12.73;8.38;;;4.70;58.10;;;;;;2338273;53;20945;-66
2022/04/03 01:10:11;;;;;;;13.07;8.45;;;4.70;58.00;;;;;;2341004;53;20920;-65
2022/04/03 01:12:41;;;;;;;14.80;8.23;;;4.70;58.00;;;;;;2341723;53;20909;-67
2022/04/03 01:15:16;;;;;;;15.77;8.95;;;4.70;58.00;;;;;;2338670;53;20979;-67
2022/04/03 01:17:42;;;;;;;13.60;8.82;;;4.70;58.00;;;;;;2342823;53;20916;-65
2022/04/03 01:20:09;;;;;;;15.02;9.32;;;4.70;57.90;;;;;;2342856;53;20957;-68
2022/04/03 01:22:37;;;;;;;14.45;9.07;;;4.70;57.80;;;;;;2342879;53;21028;-66
2022/04/03 01:25:03;;;;;;;15.15;9.00;;;4.70;57.80;;;;;;2462722;52;21531;-66
2022/04/03 01:27:30;;;;;;;12.73;8.02;;;4.70;58.40;;;;;;2339561;54;21795;-66
2022/04/03 01:29:57;;;;;;;14.65;8.75;;;4.70;57.80;;;;;;2340194;54;20992;-68
2022/04/03 01:32:24;;;;;;;13.57;8.30;;;4.70;57.70;;;;;;2340224;54;20950;-68
2022/04/03 01:34:50;;;;;;;13.55;8.50;;;4.70;57.80;;;;;;2341323;53;20949;-67
2022/04/03 01:37:17;;;;;;;13.60;8.85;;;4.70;57.80;;;;;;2323411;53;21078;-67
2022/04/03 01:39:43;;;;;;;11.73;7.90;;;4.60;58.30;;;;;;2336838;53;20988;-66
2022/04/03 01:42:09;;;;;;;13.00;8.57;;;4.60;57.90;;;;;;2583719;53;20925;-65
2022/04/03 01:44:36;;;;;;;12.55;8.25;;;4.70;58.00;;;;;;2500419;53;20963;-66
2022/04/03 01:47:03;;;;;;;13.77;8.40;;;4.70;58.00;;;;;;2339951;54;20948;-68
2022/04/03 01:49:29;;;;;;;12.50;7.85;;;4.70;58.00;;;;;;2340116;54;20912;-67
2022/04/03 01:51:55;;;;;;;13.77;8.55;;;4.70;57.90;;;;;;2343871;53;20941;-66
2022/04/03 01:54:23;;;;;;;12.50;8.35;;;4.70;57.80;;;;;;2340077;54;20972;-68
2022/04/03 01:56:49;;;;;;;13.05;8.13;;;4.70;57.70;;;;;;2340132;54;20949;-67
2022/04/03 01:59:17;;;;;;;14.63;8.98;;;4.70;57.70;;;;;;2340356;54;20936;-66
2022/04/03 02:01:44;;;;;;;13.00;8.48;;;4.60;57.50;;;;;;2544512;53;20960;-65
2022/04/03 02:04:12;;;;;;;13.43;8.35;;;4.60;57.50;;;;;;2340430;53;20920;-66
2022/04/03 02:06:38;;;;;;;14.87;8.73;;;4.60;57.50;;;;;;2339861;54;21048;-66
2022/04/03 02:09:05;;;;;;;12.55;7.93;;;4.60;57.40;;;;;;2340080;54;20960;-67
2022/04/03 02:11:31;;;;;;;12.82;8.35;;;4.50;57.30;;;;;;2561520;53;21432;-65
2022/04/03 02:13:58;;;;;;;15.38;8.77;;;4.50;57.30;;;;;;2339158;54;20940;-66
2022/04/03 02:16:24;;;;;;;14.93;8.52;;;4.50;57.40;;;;;;2340375;54;20909;-67
2022/04/03 02:18:50;;;;;;;13.80;8.85;;;4.40;57.30;;;;;;2339978;54;21079;-67
2022/04/03 02:21:17;;;;;;;12.82;8.00;;;4.40;57.40;;;;;;2340182;54;20937;-67
2022/04/03 02:23:44;;;;;;;13.70;7.53;;;4.40;57.40;;;;;;2339541;54;20928;-68
2022/04/03 02:26:11;;;;;;;13.13;8.07;;;4.40;57.40;;;;;;2343553;53;20925;-66
2022/04/03 02:28:39;;;;;;;12.93;8.18;;;4.30;57.40;;;;;;2341743;53;21680;-67
2022/04/03 02:31:05;;;;;;;13.13;7.87;;;4.30;57.50;;;;;;2338695;53;20980;-66
2022/04/03 02:33:31;;;;;;;12.73;7.43;;;4.30;57.50;;;;;;2583995;53;21691;-67
2022/04/03 02:36:00;;;;;;;13.57;8.40;;;4.20;57.50;;;;;;2343058;53;21001;-67
2022/04/03 02:38:27;;;;;;;13.20;8.23;;;4.30;57.60;;;;;;2338956;53;20929;-67
2022/04/03 02:40:53;;;;;;;13.07;8.80;;;4.20;57.50;;;;;;2339916;54;21015;-66
2022/04/03 02:43:19;;;;;;;15.85;9.30;;;4.20;57.50;;;;;;2343275;53;20937;-66
2022/04/03 02:45:46;;;;;;;14.70;8.77;;;4.20;57.50;;;;;;2339225;53;21428;-65
2022/04/03 02:48:12;;;;;;;13.32;7.90;;;4.20;57.60;;;;;;2339750;54;20897;-67
2022/04/03 02:50:42;;;;;;;15.15;8.50;;;4.10;57.50;;;;;;2339889;54;20893;-68
2022/04/03 02:53:08;;;;;;;14.75;8.80;;;4.10;57.50;;;;;;2339566;54;22443;-66
2022/04/03 02:55:35;;;;;;;14.70;8.02;;;4.10;57.60;;;;;;2340050;54;20988;-68
2022/04/03 02:58:01;;;;;;;15.45;8.40;;;4.10;57.60;;;;;;2585682;53;20980;-67
2022/04/03 03:00:28;;;;;;;17.45;9.73;;;4.10;57.60;;;;;;2339702;54;20948;-68
2022/04/03 03:02:56;;;;;;;14.10;8.73;;;4.00;57.60;;;;;;2340576;54;20908;-68
2022/04/03 03:05:24;;;;;;;13.90;7.50;;;4.00;57.70;;;;;;2340173;54;20944;-66
2022/04/03 03:07:52;;;;;;;12.13;7.45;;;4.00;57.70;;;;;;2339965;54;20972;-65
2022/04/03 03:10:19;;;;;;;14.80;7.95;;;4.00;57.70;;;;;;2339042;54;21445;-66
2022/04/03 03:12:46;;;;;;;20.27;10.23;;;4.00;57.70;;;;;;2324005;54;21005;-68
2022/04/03 03:15:13;;;;;;;39.17;17.35;;;4.00;57.80;;;;;;2339782;53;20920;-68
2022/04/03 03:17:39;;;;;;;24.10;12.88;;;4.00;57.90;;;;;;2340304;54;20909;-65
2022/04/03 03:20:06;;;;;;;19.52;10.95;;;4.00;57.90;;;;;;2339998;54;20929;-65
2022/04/03 03:22:33;;;;;;;16.70;9.45;;;4.00;58.00;;;;;;2338671;53;20928;-65
2022/04/03 03:25:00;;;;;;;16.85;9.30;;;4.00;58.00;;;;;;2339497;54;20996;-66
2022/04/03 03:27:26;;;;;;;15.90;8.98;;;4.00;58.00;;;;;;2343534;54;21747;-66
2022/04/03 03:29:56;;;;;;;13.70;8.20;;;4.00;57.90;;;;;;2339897;53;20956;-65
2022/04/03 03:32:24;;;;;;;17.37;9.00;;;4.00;57.90;;;;;;2389761;53;20980;-67
2022/04/03 03:34:51;;;;;;;13.43;7.97;;;4.00;57.90;;;;;;2339953;54;21352;-65
2022/04/03 03:37:17;;;;;;;15.75;8.80;;;4.00;57.80;;;;;;2340370;54;20940;-67
2022/04/03 03:39:45;;;;;;;13.50;8.20;;;4.00;57.80;;;;;;2343234;53;20952;-65
2022/04/03 03:42:12;;;;;;;15.18;8.35;;;4.00;57.80;;;;;;2336155;53;20933;-67
2022/04/03 03:44:39;;;;;;;14.30;8.77;;;4.00;57.80;;;;;;2340085;54;21480;-67
2022/04/03 03:47:05;;;;;;;13.57;8.07;;;4.00;57.80;;;;;;2343573;53;20953;-66
2022/04/03 03:49:32;;;;;;;14.65;8.38;;;3.90;57.70;;;;;;2340506;53;20932;-65
2022/04/03 03:52:00;;;;;;;13.00;7.72;;;3.90;57.70;;;;;;2339831;54;20940;-66
2022/04/03 03:54:27;;;;;;;16.65;8.93;;;3.90;57.70;;;;;;2340498;53;20940;-66
2022/04/03 03:56:53;;;;;;;15.77;8.82;;;3.90;57.70;;;;;;2340568;54;20972;-65
2022/04/03 03:59:20;;;;;;;15.05;8.90;;;3.90;57.70;;;;;;2340221;54;20928;-67
2022/04/03 04:01:46;;;;;;;15.18;8.98;;;3.90;57.80;;;;;;2340309;54;21011;-66
2022/04/03 04:04:13;;;;;;;13.38;8.57;;;3.90;57.80;;;;;;2340190;54;20920;-67
2022/04/03 04:06:39;;;;;;;14.05;8.15;;;3.90;58.00;;;;;;2520237;53;21516;-67
2022/04/03 04:09:07;;;;;;;14.57;8.82;;;3.90;58.00;;;;;;2340107;54;20952;-65
2022/04/03 04:11:34;;;;;;;13.90;8.48;;;3.90;58.10;;;;;;2340193;54;21468;-69
2022/04/03 04:14:00;;;;;;;13.62;9.05;;;3.90;58.10;;;;;;2452964;53;20941;-66
2022/04/03 04:16:26;;;;;;;12.25;7.57;;;3.90;58.10;;;;;;2340056;54;20928;-67
2022/04/03 04:18:53;;;;;;;11.55;7.97;;;3.90;58.10;;;;;;2344992;53;20945;-67
2022/04/03 04:21:19;;;;;;;13.25;7.37;;;4.00;58.20;;;;;;2323280;53;20948;-67
2022/04/03 04:23:45;;;;;;;12.95;7.90;;;4.00;58.20;;;;;;2339966;54;20917;-68
2022/04/03 04:26:13;;;;;;;13.20;7.62;;;4.00;58.20;;;;;;2585652;52;21131;-67
2022/04/03 04:28:40;;;;;;;14.65;8.70;;;4.00;58.10;;;;;;2328111;53;20944;-66
2022/04/03 04:31:06;;;;;;;13.30;8.05;;;4.00;58.10;;;;;;2340235;54;20920;-68
2022/04/03 04:33:32;;;;;;;14.52;9.05;;;4.00;58.10;;;;;;2585285;53;20985;-68
2022/04/03 04:35:59;;;;;;;12.85;7.55;;;4.00;58.10;;;;;;2340157;54;21024;-66
2022/04/03 04:38:26;;;;;;;16.25;9.45;;;4.00;58.20;;;;;;2339862;54;20924;-67
2022/04/03 04:40:52;;;;;;;15.93;10.07;;;4.10;58.20;;;;;;2340137;54;20992;-68
2022/04/03 04:43:19;;;;;;;13.27;7.72;;;4.10;58.20;;;;;;2585526;53;20940;-68
2022/04/03 04:45:45;;;;;;;14.38;8.85;;;4.10;58.10;;;;;;2344179;53;20932;-67
2022/04/03 04:48:11;;;;;;;14.32;8.88;;;4.10;58.10;;;;;;2339477;53;20932;-68
2022/04/03 04:50:37;;;;;;;15.40;8.95;;;4.10;58.10;;;;;;2339169;54;20932;-67
2022/04/03 04:53:04;;;;;;;14.93;9.20;;;4.10;58.00;;;;;;2579211;53;21033;-68
2022/04/03 04:55:30;;;;;;;14.63;8.98;;;4.10;58.00;;;;;;2332442;53;21445;-66
2022/04/03 04:57:57;;;;;;;15.35;9.13;;;4.10;57.90;;;;;;2340410;53;20969;-68
2022/04/03 05:00:26;;;;;;;13.70;8.45;;;4.10;57.90;;;;;;2585386;53;20948;-68
2022/04/03 05:02:52;;;;;;;15.48;9.18;;;4.10;58.00;;;;;;2343260;53;20961;-68
2022/04/03 05:05:19;;;;;;;14.63;8.60;;;4.10;58.00;;;;;;2339495;53;21795;-66
2022/04/03 05:07:46;;;;;;;16.20;9.50;;;4.10;58.00;;;;;;2339815;54;20940;-67
2022/04/03 05:10:13;;;;;;;14.45;8.27;;;4.10;58.00;;;;;;2340287;54;21757;-65
2022/04/03 05:12:40;;;;;;;14.27;8.38;;;4.10;58.10;;;;;;2340048;54;20924;-65
2022/04/03 05:15:10;;;;;;;13.75;8.68;;;4.10;58.10;;;;;;2340519;54;20947;-68
2022/04/03 05:17:37;;;;;;;14.93;8.63;;;4.10;58.10;;;;;;2339804;54;21049;-67
2022/04/03 05:20:07;;;;;;;14.63;8.98;;;4.10;58.10;;;;;;2344422;53;21021;-66
2022/04/03 05:22:34;;;;;;;17.98;8.43;;;4.20;58.10;;;;;;2339399;53;20905;-67
2022/04/03 05:25:03;;;;;;;14.07;8.85;;;4.20;58.10;;;;;;2345134;53;21063;-67
2022/04/03 05:27:29;;;;;;;14.40;8.65;;;4.20;58.20;;;;;;2339409;53;21430;-66
2022/04/03 05:29:56;;;;;;;14.60;8.45;;;4.20;58.20;;;;;;2343402;53;20913;-65
2022/04/03 05:32:26;;;;;;;14.48;9.38;;;4.20;58.10;;;;;;2421178;53;20940;-66
2022/04/03 05:34:53;;;;;;;16.35;10.00;;;4.20;58.10;;;;;;2339068;53;20952;-68
2022/04/03 05:37:19;;;;;;;14.65;8.43;;;4.20;58.10;;;;;;2345409;53;21720;-68
2022/04/03 05:39:45;;;;;;;14.38;9.18;;;4.20;58.10;;;;;;2320863;53;21773;-67
2022/04/03 05:42:12;;;;;;;15.68;9.82;;;4.30;58.20;;;;;;2345238;53;21045;-67
2022/04/03 05:44:39;;;;;;;16.10;9.65;;;4.30;58.30;;;;;;2344768;53;20961;-65
2022/04/03 05:47:17;;;;;;;15.93;9.35;;;4.30;58.30;;;;;;2339091;53;20968;-67
2022/04/03 05:49:44;;;;;;;13.13;8.20;;;4.30;58.40;;;;;;2321134;54;20952;-67
2022/04/03 05:52:10;;;;;;;15.40;9.20;;;4.30;58.30;;;;;;2321014;55;21770;-67
2022/04/03 05:54:37;;;;;;;16.33;9.52;;;4.30;58.30;;;;;;2348499;53;21765;-65
2022/04/03 05:57:03;;;;;;;13.82;8.90;;;4.40;58.40;;;;;;2344072;53;21625;-68
2022/04/03 05:59:29;;;;;;;16.83;10.18;;;4.40;58.40;;;;;;2339635;53;21004;-65
2022/04/03 06:01:56;;;;;;;14.65;8.63;;;4.40;58.40;;;;;;2348357;53;21032;-67
2022/04/03 06:04:22;;;;;;;15.18;9.52;;;4.40;58.40;;;;;;2324463;53;20956;-68
2022/04/03 06:06:49;;;;;;;14.27;8.93;;;4.40;58.40;;;;;;2412688;53;20923;-68
2022/04/03 06:09:15;;;;;;;14.57;8.77;;;4.50;58.40;;;;;;2339977;54;21825;-65
2022/04/03 06:11:42;;;;;;;15.52;9.23;;;4.50;58.40;;;;;;2339601;54;21021;-67
2022/04/03 06:14:10;;;;;;;14.77;8.50;;;4.50;58.40;;;;;;2342909;53;21037;-67
2022/04/03 06:16:36;;;;;;;14.13;8.50;;;4.50;58.30;;;;;;2327611;53;21916;-67
2022/04/03 06:19:05;;;;;;;19.50;11.00;;;4.60;58.30;;;;;;2343554;53;21527;-65
2022/04/03 06:21:32;;;;;;;15.75;9.70;;;4.60;58.30;;;;;;2354118;53;21092;-66
2022/04/03 06:23:58;;;;;;;14.57;9.35;;;4.60;58.30;;;;;;2338577;53;20937;-66
2022/04/03 06:26:24;;;;;;;15.65;9.65;;;4.60;58.30;;;;;;2347597;53;20987;-67
2022/04/03 06:28:52;;;;;;;15.20;9.60;;;4.60;58.30;;;;;;2415017;52;21013;-68
2022/04/03 06:31:19;;;;;;;14.10;8.73;;;4.60;58.30;;;;;;2340257;54;20996;-67
2022/04/03 06:33:45;;;;;;;16.35;10.27;;;4.60;58.30;;;;;;2552328;53;21053;-68
2022/04/03 06:36:11;;;;;;;16.12;9.65;;;4.60;58.30;;;;;;2351474;53;20918;-68
2022/04/03 06:38:38;;;;;;;14.55;9.52;;;4.70;58.50;;;;;;2338588;53;21083;-65
2022/04/03 06:41:07;;;;;;;14.93;9.30;;;4.70;58.40;;;;;;2338984;54;21027;-65
2022/04/03 06:43:33;;;;;;;15.02;9.40;;;4.70;58.40;;;;;;2339924;54;20936;-65
2022/04/03 06:46:01;;;;;;;14.23;8.38;;;4.80;58.40;;;;;;2340323;54;20979;-66
2022/04/03 06:48:28;;;;;;;16.33;9.13;;;4.80;58.40;;;;;;2343512;53;21419;-67
2022/04/03 06:50:55;;;;;;;15.63;9.63;;;4.90;58.50;;;;;;2394688;53;20982;-68
2022/04/03 06:53:21;;;;;;;15.48;9.93;;;4.90;58.50;;;;;;2340338;54;21040;-68
2022/04/03 06:55:48;;;;;;;14.57;9.27;;;4.90;58.40;;;;;;2585367;53;20991;-65
2022/04/03 06:58:14;;;;;;;17.15;10.75;;;5.00;58.50;;;;;;2585530;53;20912;-67
2022/04/03 07:00:41;;;;;;;15.50;9.60;;;5.00;58.50;;;;;;2341362;53;20977;-67
2022/04/03 07:03:07;;;;;;;15.63;8.98;;;5.00;58.40;;;;;;2333390;53;21075;-68
2022/04/03 07:05:34;;;;;;;15.18;9.30;;;5.10;58.50;;;;;;2340368;53;21487;-68
2022/04/03 07:08:00;;;;;;;14.40;9.18;;;5.10;58.40;;;;;;2339599;54;21004;-67
2022/04/03 07:10:27;;;;;;;15.68;9.50;;;5.10;58.40;;;;;;2466594;53;21589;-67
2022/04/03 07:12:55;;;;;;;17.45;10.65;;;5.20;58.40;;;;;;2338979;53;20996;-67
2022/04/03 07:15:21;;;;;;;14.95;9.25;;;5.20;58.20;;;;;;2340731;54;20929;-66
2022/04/03 07:17:48;;;;;;;15.18;9.98;;;5.30;58.10;;;;;;2340011;54;21898;-67
2022/04/03 07:20:14;;;;;;;13.88;9.07;;;5.30;58.10;;;;;;2343951;53;21000;-66
2022/04/03 07:22:41;;;;;;;14.60;9.65;;;5.30;58.10;;;;;;2339159;53;20984;-66
2022/04/03 07:25:11;;;;;;;14.57;10.02;;;5.30;58.10;;;;;;2343295;53;21040;-68
2022/04/03 07:27:37;;;;;;;15.68;9.52;;;5.40;58.20;;;;;;2565325;53;21004;-67
2022/04/03 07:30:05;;;;;;;14.75;9.07;;;5.40;58.30;;;;;;2585368;53;21705;-68
2022/04/03 07:32:34;;;;;;;14.15;9.00;;;5.50;58.70;;;;;;2339948;54;21704;-66
2022/04/03 07:35:00;;;;;;;14.20;8.70;;;5.50;58.80;;;;;;2339850;54;20952;-67
2022/04/03 07:37:26;;;;;;;14.45;8.48;;;5.60;58.90;;;;;;2344420;53;20953;-67
2022/04/03 07:39:53;;;;;;;13.13;8.48;;;5.70;58.90;;;;;;2338962;53;20937;-66
2022/04/03 07:42:20;;;;;;;12.00;8.02;;;5.80;59.00;;;;;;2340227;54;21009;-66
2022/04/03 07:44:46;;;;;;;12.50;8.52;;;5.90;59.10;;;;;;2340447;54;20889;-66
2022/04/03 07:47:14;;;;;;;13.10;8.05;;;6.00;59.20;;;;;;2340688;54;20968;-67
2022/04/03 07:49:41;;;;;;;13.77;8.80;;;6.10;59.30;;;;;;2339410;54;21367;-67
2022/04/03 07:52:07;;;;;;;12.88;8.48;;;6.20;59.50;;;;;;2344083;53;21575;-67
2022/04/03 07:54:35;;;;;;;12.93;8.55;;;6.30;59.70;;;;;;2339281;53;20946;-66
2022/04/03 07:57:01;;;;;;;12.32;8.02;;;6.50;59.40;;;;;;2339962;54;20952;-66
2022/04/03 07:59:27;;;;;;;12.45;8.07;;;6.60;59.20;;;;;;2340426;54;20980;-67
2022/04/03 08:01:54;;;;;;;14.30;8.65;;;6.70;59.30;;;;;;2340191;54;20964;-66
2022/04/03 08:04:20;;;;;;;11.57;7.70;;;6.80;59.50;;;;;;2585180;53;21394;-67
2022/04/03 08:06:47;;;;;;;11.12;7.82;;;6.90;59.30;;;;;;2343759;53;20941;-67
2022/04/03 08:09:16;;;;;;;12.93;8.27;;;7.00;59.10;;;;;;2340138;53;21027;-67
2022/04/03 08:11:43;;;;;;;11.45;7.68;;;7.10;58.90;;;;;;2339454;53;20991;-66
2022/04/03 08:14:16;;;;;;;11.38;7.43;;;7.10;58.70;;;;;;2342957;53;20952;-67
2022/04/03 08:16:43;;;;;;;12.85;8.30;;;7.20;58.70;;;;;;2339823;53;20932;-67
2022/04/03 08:19:12;;;;;;;14.87;8.82;;;7.30;58.50;;;;;;2339923;54;21001;-68
2022/04/03 08:21:38;;;;;;;12.15;8.50;;;7.40;58.50;;;;;;2403293;53;20961;-65
2022/04/03 08:24:05;;;;;;;11.88;7.72;;;7.40;58.60;;;;;;2529963;53;20964;-66
2022/04/03 08:26:31;;;;;;;13.00;7.85;;;7.50;58.70;;;;;;2328043;53;21003;-66
2022/04/03 08:28:57;;;;;;;11.35;7.10;;;7.60;59.10;;;;;;2340115;54;20984;-68
2022/04/03 08:31:24;;;;;;;13.35;7.78;;;7.80;59.50;;;;;;2347181;53;21348;-68
2022/04/03 08:33:51;;;;;;;10.63;7.30;;;7.90;59.60;;;;;;2328227;53;21071;-66
2022/04/03 08:36:17;;;;;;;13.88;7.85;;;8.10;59.50;;;;;;2340191;54;21583;-68
2022/04/03 08:38:44;;;;;;;10.18;7.22;;;8.30;59.40;;;;;;2342640;53;20932;-67
2022/04/03 08:41:10;;;;;;;10.93;7.82;;;8.50;59.40;;;;;;2339931;53;22003;-67
2022/04/03 08:43:37;;;;;;;12.10;7.87;;;8.70;59.50;;;;;;2361945;53;21740;-68
2022/04/03 08:46:05;;;;;;;9.77;6.72;;;8.90;59.30;;;;;;2332524;53;20931;-67
2022/04/03 08:48:31;;;;;;;8.50;5.93;;;9.10;59.00;;;;;;2342782;53;20921;-68
2022/04/03 08:51:03;;;;;;;9.80;6.78;;;9.20;58.90;;;;;;2339916;53;21000;-68
2022/04/03 08:53:30;;;;;;;9.50;7.00;;;9.40;59.30;;;;;;2582897;53;21418;-67
2022/04/03 08:55:57;;;;;;;9.18;6.45;;;9.60;59.30;;;;;;2340842;53;20948;-67
2022/04/03 08:58:23;;;;;;;7.30;5.32;;;9.80;59.40;;;;;;2339369;54;20976;-68
2022/04/03 09:00:50;;;;;;;7.95;5.50;;;10.10;59.50;;;;;;2345224;53;20991;-67
2022/04/03 09:03:17;;;;;;;7.03;5.43;;;10.40;59.20;;;;;;2321020;55;21745;-69
2022/04/03 09:05:46;;;;;;;7.85;5.55;;;10.70;59.30;;;;;;2320901;54;21703;-67
2022/04/03 09:08:13;;;;;;;8.18;6.05;;;11.00;59.40;;;;;;2342716;53;20992;-68
2022/04/03 09:10:41;;;;;;;8.10;5.00;;;11.30;59.00;;;;;;2338546;53;20932;-68
2022/04/03 09:13:08;;;;;;;7.00;5.05;;;11.50;57.70;;;;;;2339679;54;21591;-69
2022/04/03 09:15:34;;;;;;;6.78;4.53;;;11.60;56.60;;;;;;2340284;54;21044;-67
2022/04/03 09:18:01;;;;;;;6.85;4.57;;;11.60;55.70;;;;;;2338848;54;20928;-68
2022/04/03 09:20:30;;;;;;;6.97;4.80;;;11.50;55.00;;;;;;2338659;53;20984;-68
2022/04/03 09:23:00;;;;;;;6.50;4.68;;;11.40;54.40;;;;;;2338983;54;20932;-68
2022/04/03 09:25:39;;;;;;;6.28;4.65;;;11.20;53.90;;;;;;2339662;54;20956;-66
2022/04/03 09:28:06;;;;;;;7.70;5.12;;;11.00;53.30;;;;;;2343278;53;20953;-68
2022/04/03 09:30:35;;;;;;;6.75;4.35;;;10.80;53.80;;;;;;2338957;53;20953;-67
2022/04/03 09:33:01;;;;;;;8.52;4.82;;;10.60;53.00;;;;;;2340175;54;20988;-67
2022/04/03 09:35:29;;;;;;;6.37;3.87;;;10.40;53.00;;;;;;2340391;54;20937;-67
2022/04/03 09:38:15;;;;;;;7.25;4.22;;;10.30;53.10;;;;;;2584920;53;21032;-66
2022/04/03 09:40:47;;;;;;;6.43;4.53;;;10.10;53.10;;;;;;2339861;54;21022;-67
2022/04/03 09:43:47;;;;;;;6.43;4.32;;;10.00;53.40;;;;;;2341231;53;20956;-66
2022/04/03 09:46:13;;;;;;;6.62;3.97;;;9.90;54.00;;;;;;2339767;54;20924;-67
2022/04/03 09:48:43;;;;;;;6.85;4.07;;;9.80;54.50;;;;;;2455568;53;21295;-65
2022/04/03 09:51:14;;;;;;;6.82;4.37;;;9.70;54.40;;;;;;2340234;54;21004;-68
2022/04/03 09:54:00;;;;;;;6.40;4.37;;;9.70;54.40;;;;;;2340328;54;21730;-67
2022/04/03 09:56:31;;;;;;;6.47;4.47;;;9.60;54.20;;;;;;2340389;54;20957;-65
2022/04/03 09:58:58;;;;;;;6.07;4.18;;;9.50;54.20;;;;;;2340266;54;20944;-68
2022/04/03 10:01:40;;;;;;;6.90;4.53;;;9.40;54.10;;;;;;2339949;53;20940;-67
2022/04/03 10:04:13;;;;;;;5.75;3.92;;;9.30;54.00;;;;;;2406847;53;20956;-67
2022/04/03 10:06:40;;;;;;;7.22;4.35;;;9.30;53.90;;;;;;2355413;53;21438;-68
2022/04/03 10:09:11;;;;;;;7.45;4.55;;;9.20;54.00;;;;;;2358851;53;21381;-66
2022/04/03 10:11:43;;;;;;;6.03;3.85;;;9.10;54.10;;;;;;2341720;53;20944;-66
2022/04/03 10:14:10;;;;;;;6.60;4.15;;;9.10;54.20;;;;;;2343545;53;21088;-66
2022/04/03 10:16:36;;;;;;;6.68;3.70;;;9.00;54.10;;;;;;2339918;53;21012;-67
2022/04/03 10:19:04;;;;;;;6.72;3.95;;;9.00;54.20;;;;;;2428903;53;20987;-66
2022/04/03 10:22:05;;;;;;;6.70;4.57;;;9.00;54.10;;;;;;2358257;53;20965;-68
2022/04/03 10:24:34;;;;;;;6.20;4.00;;;8.90;53.80;;;;;;2343273;54;20955;-65
2022/04/03 10:27:18;;;;;;;5.37;3.95;;;8.90;54.20;;;;;;2343283;54;21024;-65
2022/04/03 10:29:47;;;;;;;4.97;3.53;;;8.90;54.10;;;;;;2584599;53;20981;-66
2022/04/03 10:38:05;;;;;;;5.28;3.33;;;8.90;54.30;;;;;;2339996;54;20999;-66
2022/04/03 10:40:35;;;;;;;5.40;3.72;;;8.90;54.20;;;;;;2343983;53;20983;-66
2022/04/03 10:43:05;;;;;;;8.18;4.82;;;9.00;54.60;;;;;;2340301;54;20936;-67
2022/04/03 10:45:36;;;;;;;7.62;4.80;;;9.00;54.70;;;;;;2343839;53;20929;-66
2022/04/03 10:54:58;;;;;;;6.20;4.32;;;9.00;54.60;;;;;;2341376;53;20936;-67
2022/04/03 10:58:36;;;;;;;5.30;3.25;;;9.30;54.60;;;;;;2320805;55;21127;-66
2022/04/03 11:01:05;;;;;;;4.70;2.83;;;9.30;54.50;;;;;;2343376;53;20948;-67
2022/04/03 11:03:32;;;;;;;4.20;2.85;;;9.40;54.80;;;;;;2341589;54;21016;-67
2022/04/03 11:06:21;;;;;;;5.60;3.25;;;9.40;54.70;;;;;;2338966;54;20960;-67
2022/04/03 11:09:03;;;;;;;5.25;2.65;;;9.50;54.50;;;;;;2338813;54;21016;-67
2022/04/03 11:11:49;;;;;;;5.80;3.05;;;9.60;54.50;;;;;;2343314;53;20905;-69
2022/04/03 11:14:57;;;;;;;6.53;3.70;;;9.60;54.60;;;;;;2342588;53;21007;-68
2022/04/03 11:24:15;;;;;;;4.80;2.95;;;9.70;53.70;;;;;;2343354;53;20948;-68
2022/04/03 11:26:43;;;;;;;4.85;2.67;;;9.60;53.30;;;;;;2532204;53;20939;-68
2022/04/03 11:29:10;;;;;;;5.20;3.03;;;9.50;53.20;;;;;;2341150;53;20992;-67
2022/04/03 11:31:38;;;;;;;5.47;3.15;;;9.40;53.10;;;;;;2340558;53;20980;-65
2022/04/03 11:34:06;;;;;;;5.00;2.87;;;9.30;53.10;;;;;;2343801;53;20921;-68
2022/04/03 11:36:32;;;;;;;5.28;3.00;;;9.30;53.20;;;;;;2321918;53;21044;-68
2022/04/03 11:39:04;;;;;;;4.95;3.10;;;9.30;53.30;;;;;;2341160;53;20949;-66
2022/04/03 11:41:34;;;;;;;5.57;3.50;;;9.20;53.30;;;;;;2343739;53;20995;-67
2022/04/03 11:44:09;;;;;;;5.40;3.20;;;9.30;53.50;;;;;;2339358;54;21052;-67
2022/04/03 11:46:43;;;;;;;4.07;2.50;;;9.30;53.50;;;;;;2343605;53;21033;-66
2022/04/03 11:49:17;;;;;;;6.65;2.92;;;9.30;53.50;;;;;;2340050;53;20960;-66
2022/04/03 11:51:44;;;;;;;5.12;2.78;;;9.30;53.50;;;;;;2581990;53;21025;-69
2022/04/03 11:54:10;;;;;;;5.07;2.97;;;9.30;53.60;;;;;;2339327;53;21693;-66
2022/04/03 11:56:37;;;;;;;5.50;3.17;;;9.30;53.40;;;;;;2482093;53;21000;-67
2022/04/03 11:59:05;;;;;;;5.32;3.05;;;9.40;53.20;;;;;;2344102;53;21453;-66
2022/04/03 12:01:35;;;;;;;5.22;3.10;;;9.40;53.80;;;;;;2583112;52;20937;-66
2022/04/03 12:04:09;;;;;;;4.62;2.95;;;9.40;53.10;;;;;;2347530;53;20924;-65
2022/04/03 12:06:35;;;;;;;3.87;2.42;;;9.40;53.00;;;;;;2546293;52;21868;-65
2022/04/03 12:09:09;;;;;;;5.40;3.03;;;9.50;53.10;;;;;;2345030;53;20968;-67
2022/04/03 12:11:35;;;;;;;4.57;2.62;;;9.50;52.90;;;;;;2345509;53;20956;-65
2022/04/03 12:14:04;;;;;;;4.78;2.50;;;9.50;52.90;;;;;;2347712;53;20964;-65
2022/04/03 12:16:36;;;;;;;4.50;2.58;;;9.60;52.80;;;;;;2346912;53;20972;-68
2022/04/03 12:19:08;;;;;;;5.25;2.92;;;9.60;52.70;;;;;;2343795;53;20941;-66
2022/04/03 12:21:59;;;;;;;3.87;2.25;;;9.60;52.80;;;;;;2345372;53;20929;-66
2022/04/03 12:24:31;;;;;;;4.45;2.50;;;9.70;52.60;;;;;;2344911;53;20941;-67
2022/04/03 12:27:01;;;;;;;4.32;2.80;;;9.70;52.70;;;;;;2345255;53;20917;-67
2022/04/03 12:29:30;;;;;;;3.90;2.20;;;9.70;52.60;;;;;;2344990;53;20940;-66
2022/04/03 12:32:12;;;;;;;3.75;2.28;;;9.80;52.60;;;;;;2344710;53;21023;-67
2022/04/03 12:34:40;;;;;;;4.47;2.00;;;9.80;52.30;;;;;;2591839;52;20937;-66
2022/04/03 12:37:07;;;;;;;3.75;2.37;;;9.80;52.50;;;;;;2344679;53;20992;-67
2022/04/03 12:40:18;;;;;;;4.07;2.58;;;9.90;52.50;;;;;;2344977;53;20936;-67
2022/04/03 12:42:45;;;;;;;4.22;2.60;;;9.90;51.40;;;;;;2345196;53;20961;-66
2022/04/03 12:45:15;;;;;;;4.07;2.40;;;9.90;51.90;;;;;;2491717;52;20985;-68
2022/04/03 12:47:55;;;;;;;3.90;2.45;;;9.90;51.40;;;;;;2344688;53;20933;-66
2022/04/03 12:50:25;;;;;;;3.60;2.30;;;9.90;51.30;;;;;;2591794;52;20977;-65
2022/04/03 12:52:56;;;;;;;4.03;2.25;;;9.90;51.20;;;;;;2344905;53;20929;-66
2022/04/03 12:55:33;;;;;;;5.03;2.22;;;9.80;51.00;;;;;;2344786;53;21703;-66
2022/04/03 12:58:33;;;;;;;3.80;2.30;;;9.80;50.90;;;;;;2344689;53;21637;-67
2022/04/03 13:01:15;;;;;;;4.72;2.70;;;9.80;50.80;;;;;;2591706;52;20905;-68
2022/04/03 13:03:46;;;;;;;4.07;2.55;;;9.80;50.80;;;;;;2347414;53;21440;-67
2022/04/03 13:06:33;;;;;;;4.28;2.50;;;9.70;51.00;;;;;;2344762;53;20928;-68
2022/04/03 13:09:04;;;;;;;4.30;2.37;;;9.70;51.20;;;;;;2344524;53;20928;-67
2022/04/03 13:11:36;;;;;;;3.85;2.50;;;9.70;51.10;;;;;;2345020;53;20932;-65
2022/04/03 13:14:23;;;;;;;4.35;2.58;;;9.70;51.20;;;;;;2345333;53;20928;-67
2022/04/03 13:16:51;;;;;;;4.35;2.50;;;9.70;50.90;;;;;;2590184;52;21256;-66